Terminal Aerodrome Forecast
Issued by NWS Louisville, KY

Home | Current Version | Previous Version | Text Only | Print | Product List | Glossary On
Versions: 1 2 3 4 5 6 7 8 9 10 11 12 13 14 15 16 17
000
FTUS43 KLMK 242300
TAFSDF
TAF
KSDF 242321Z 2500/2606 14008KT P6SM SCT120 BKN250
     FM250430 17013KT P6SM VCSH BKN050
     FM250530 19012G19KT P6SM VCTS BKN050CB
      TEMPO 2506/2508 VRB15G25KT 3SM -TSRA BR OVC040CB
     FM250800 21014KT P6SM VCSH BKN025
     FM251500 28015G25KT P6SM BKN050
     FM251800 30015G22KT P6SM SCT050=

USA.gov is the U.S. government's official web portal to all federal, state and local government web resources and services.